Orbital elements of COSMOS 2251 DEB
| Launched | 15 June 1993 |
| Flight ended | – |
| Launch site | Plesetsk Missile and Space Complex, Russia |
| Owner | Commonwealth of Independent States (former USSR) |
| NORAD ID | 34845 |
| Date fetched |
Epoch osculation |
Inc. [°] |
Ecc. | RA asc node [hr] |
Arg Peri. [°] |
Mean anom [°] |
Mean motion [rev/day] |
Abs. mag |
| Date fetched |
Epoch osculation |
Inc. [°] |
Ecc. | RA asc node [hr] |
Arg Peri. [°] |
Mean anom [°] |
Mean motion [rev/day] |
Abs. mag |
| 2026 May 08 17:57 | 2026 May 04 01:15:21 | 74.0250 | 0.00216 | 16.1761 | 7.8200 | 352.3291 | 14.46152 | – |
| 2026 May 07 17:58 | 2026 May 04 01:15:21 | 74.0250 | 0.00216 | 16.1761 | 7.8200 | 352.3291 | 14.46152 | – |
| 2026 May 06 17:57 | 2026 May 04 01:15:21 | 74.0250 | 0.00216 | 16.1761 | 7.8200 | 352.3291 | 14.46152 | – |
| 2026 May 05 17:57 | 2026 May 04 01:15:21 | 74.0250 | 0.00216 | 16.1761 | 7.8200 | 352.3291 | 14.46152 | – |
| 2026 May 04 17:57 | 2026 Apr 26 15:36:31 | 74.0243 | 0.00213 | 17.0977 | 23.9183 | 352.3291 | 14.46152 | – |
| 2026 May 03 17:57 | 2026 Apr 26 15:36:31 | 74.0243 | 0.00213 | 17.0977 | 23.9183 | 352.3291 | 14.46152 | – |
| 2026 May 02 17:57 | 2026 Apr 26 15:36:31 | 74.0243 | 0.00213 | 17.0977 | 23.9183 | 352.3291 | 14.46152 | – |
| 2026 May 01 17:56 | 2026 Apr 26 15:36:31 | 74.0243 | 0.00213 | 17.0977 | 23.9183 | 352.3291 | 14.46152 | – |
| 2026 Apr 30 17:56 | 2026 Apr 26 15:36:31 | 74.0243 | 0.00213 | 17.0977 | 23.9183 | 352.3291 | 14.46152 | – |
| 2026 Apr 29 17:57 | 2026 Apr 22 16:58:25 | 74.0238 | 0.00212 | 17.5886 | 32.5107 | 352.3291 | 14.46152 | – |
| 2026 Apr 28 17:56 | 2026 Apr 22 16:58:25 | 74.0238 | 0.00212 | 17.5886 | 32.5107 | 352.3291 | 14.46152 | – |
| 2026 Apr 27 17:58 | 2026 Apr 22 16:58:25 | 74.0238 | 0.00212 | 17.5886 | 32.5107 | 352.3291 | 14.46152 | – |
| 2026 Apr 26 17:58 | 2026 Apr 22 16:58:25 | 74.0238 | 0.00212 | 17.5886 | 32.5107 | 352.3291 | 14.46152 | – |
| 2026 Apr 25 17:58 | 2026 Apr 22 16:58:25 | 74.0238 | 0.00212 | 17.5886 | 32.5107 | 352.3291 | 14.46152 | – |
| 2026 Apr 24 17:59 | 2026 Apr 22 16:58:25 | 74.0238 | 0.00212 | 17.5886 | 32.5107 | 352.3291 | 14.46152 | – |
| 2026 Apr 23 17:57 | 2026 Apr 18 16:40:40 | 74.0216 | 0.00209 | 18.0880 | 41.8303 | 352.3291 | 14.46152 | – |
| 2026 Apr 22 17:57 | 2026 Apr 18 16:40:40 | 74.0216 | 0.00209 | 18.0880 | 41.8303 | 352.3291 | 14.46152 | – |
| 2026 Apr 21 17:57 | 2026 Apr 18 16:40:40 | 74.0216 | 0.00209 | 18.0880 | 41.8303 | 352.3291 | 14.46152 | – |
| 2026 Apr 20 17:57 | 2026 Apr 18 16:40:40 | 74.0216 | 0.00209 | 18.0880 | 41.8303 | 352.3291 | 14.46152 | – |
| 2026 Apr 19 17:58 | 2026 Apr 18 16:40:40 | 74.0216 | 0.00209 | 18.0880 | 41.8303 | 352.3291 | 14.46152 | – |
| 2026 Apr 18 17:56 | 2026 Apr 13 05:30:58 | 74.0230 | 0.00210 | 18.7686 | 53.4684 | 352.3291 | 14.46152 | – |
| 2026 Apr 16 17:57 | 2026 Apr 13 05:30:58 | 74.0230 | 0.00210 | 18.7686 | 53.4684 | 352.3291 | 14.46152 | – |
| 2026 Apr 14 17:57 | 2026 Apr 13 05:30:58 | 74.0230 | 0.00210 | 18.7686 | 53.4684 | 352.3291 | 14.46152 | – |
| 2026 Apr 13 17:57 | 2026 Apr 13 05:30:58 | 74.0230 | 0.00210 | 18.7686 | 53.4684 | 352.3291 | 14.46152 | – |
| 2026 Apr 12 17:57 | 2026 Apr 07 06:43:54 | 74.0233 | 0.00209 | 19.5093 | 66.5556 | 352.3291 | 14.46152 | – |
| 2026 Apr 11 17:57 | 2026 Apr 07 06:43:54 | 74.0233 | 0.00209 | 19.5093 | 66.5556 | 352.3291 | 14.46152 | – |